Time;durP1;ratioP1;P1;durP2;ratioP2;P2;SDS_P1;SDS_P2;PMS_P1;PMS_P2;Temp;Humidity;BMP_temperature;BMP_pressure;BME280_temperature;BME280_humidity;BME280_pressure;Samples;Min_cycle;Max_cycle;Signal;HPM_P1;HPM_P2
2023/06/04 00:00:02;;;;;;;2.60;1.30;;;;;;;-145.18;100.00;47273.78;5013161;28;20026;-60
2023/06/04 00:02:28;;;;;;;2.17;1.20;;;;;;;-145.18;100.00;47291.38;5012264;28;20026;-60
2023/06/04 00:04:53;;;;;;;2.47;1.30;;;;;;;-145.18;100.00;47293.31;4994187;28;20037;-60
2023/06/04 00:07:19;;;;;;;3.23;1.37;;;;;;;-145.18;100.00;47273.78;4993434;28;20037;-60
2023/06/04 00:09:46;;;;;;;2.10;0.90;;;;;;;-145.18;100.00;47283.56;5013034;28;20096;-60
2023/06/04 00:12:12;;;;;;;2.33;1.20;;;;;;;-145.18;100.00;47295.28;5012875;28;20041;-60
2023/06/04 00:14:37;;;;;;;2.83;1.27;;;;;;;-145.18;100.00;47312.88;5012997;28;20038;-60
2023/06/04 00:17:03;;;;;;;4.47;1.43;;;;;;;-145.18;100.00;47312.88;5012826;28;20088;-60
2023/06/04 00:19:28;;;;;;;5.67;1.43;;;;;;;-145.18;100.00;47307.00;5012779;28;20478;-60
2023/06/04 00:21:54;;;;;;;2.23;1.23;;;;;;;-145.18;100.00;47318.72;5003421;28;20037;-60
2023/06/04 00:24:20;;;;;;;3.70;1.10;;;;;;;-145.18;100.00;47291.38;5012482;28;20049;-60
2023/06/04 00:26:45;;;;;;;3.53;1.30;;;;;;;-145.18;100.00;47320.69;5015704;28;20026;-60
2023/06/04 00:29:10;;;;;;;1.77;1.17;;;;;;;-145.18;100.00;47332.41;5024396;28;20033;-60
2023/06/04 00:31:36;;;;;;;6.43;1.40;;;;;;;-145.18;100.00;47344.13;5023902;28;20026;-60
2023/06/04 00:34:04;;;;;;;4.17;1.40;;;;;;;-145.18;100.00;47334.34;5016715;28;20030;-60
2023/06/04 00:36:29;;;;;;;5.07;1.73;;;;;;;-145.18;100.00;47336.31;5005634;28;20056;-60
2023/06/04 00:38:54;;;;;;;3.73;1.47;;;;;;;-145.18;100.00;47357.78;5012315;28;20109;-60
2023/06/04 00:41:20;;;;;;;2.17;1.20;;;;;;;-145.18;100.00;47344.13;5012320;28;20061;-60
2023/06/04 00:43:45;;;;;;;2.77;1.40;;;;;;;-145.18;100.00;47363.66;5006376;28;20060;-60
2023/06/04 00:46:17;;;;;;;4.27;1.33;;;;;;;-145.18;100.00;47369.53;5012489;28;20037;-60
2023/06/04 00:48:44;;;;;;;3.33;1.50;;;;;;;-145.18;100.00;47369.53;5006136;28;20065;-60
2023/06/04 00:51:11;;;;;;;5.50;1.17;;;;;;;-145.18;100.00;47355.84;4994938;28;20454;-60
2023/06/04 00:53:36;;;;;;;5.33;1.30;;;;;;;-145.18;100.00;47371.47;5002465;28;20068;-60
2023/06/04 00:56:04;;;;;;;5.47;1.20;;;;;;;-145.18;100.00;47369.53;5012153;28;20049;-60
2023/06/04 00:58:30;;;;;;;3.10;1.30;;;;;;;-145.18;100.00;47369.53;5011757;28;20026;-60
2023/06/04 01:00:57;;;;;;;2.77;1.23;;;;;;;-145.18;100.00;47391.00;5023686;28;20040;-60
2023/06/04 01:03:29;;;;;;;3.30;1.27;;;;;;;-145.18;100.00;47387.09;5004074;28;20033;-60
2023/06/04 01:06:08;;;;;;;2.60;1.50;;;;;;;-145.18;100.00;47371.47;5011802;28;20026;-60
2023/06/04 01:08:35;;;;;;;4.83;1.33;;;;;;;-145.18;100.00;47375.38;5011848;28;20064;-60
2023/06/04 01:11:00;;;;;;;5.53;1.60;;;;;;;-145.18;100.00;47363.66;4994592;28;20068;-60
2023/06/04 01:13:25;;;;;;;2.37;1.33;;;;;;;-145.18;100.00;47371.47;5012151;28;20038;-60
2023/06/04 01:15:51;;;;;;;3.70;1.17;;;;;;;-145.18;100.00;47365.63;4994663;28;20038;-60
2023/06/04 01:18:29;;;;;;;3.60;1.30;;;;;;;-145.18;100.00;47391.00;5015804;28;20091;-60
2023/06/04 01:21:18;;;;;;;4.67;1.13;;;;;;;-145.18;100.00;47365.63;5024357;28;20029;-60
2023/06/04 01:24:00;;;;;;;3.40;1.53;;;;;;;-145.18;100.00;47342.16;5000336;28;20056;-60
2023/06/04 01:26:27;;;;;;;2.50;1.30;;;;;;;-145.18;100.00;47342.16;5015404;28;20437;-60
2023/06/04 01:28:55;;;;;;;3.03;1.30;;;;;;;-145.18;100.00;47307.00;4994596;28;20030;-60
2023/06/04 01:31:24;;;;;;;2.27;1.57;;;;;;;-145.18;100.00;47240.56;5009999;28;20113;-60
2023/06/04 01:33:54;;;;;;;2.83;1.33;;;;;;;-145.18;100.00;47242.53;5004455;28;20026;-60
2023/06/04 01:36:20;;;;;;;2.03;1.20;;;;;;;-145.18;100.00;47285.50;5021434;28;20029;-60
2023/06/04 01:38:46;;;;;;;2.77;1.57;;;;;;;-145.18;100.00;47344.13;5015650;28;20076;-60
2023/06/04 01:41:11;;;;;;;2.07;1.40;;;;;;;-145.18;100.00;47340.22;5014991;28;20034;-60
2023/06/04 01:43:36;;;;;;;2.43;1.40;;;;;;;-145.18;100.00;47355.84;5010768;28;20104;-60
2023/06/04 01:46:03;;;;;;;2.93;1.17;;;;;;;-145.18;100.00;47394.91;4997511;28;20037;-60
2023/06/04 01:48:28;;;;;;;2.87;1.50;;;;;;;-145.18;100.00;47344.13;5015707;28;20045;-60
2023/06/04 01:50:54;;;;;;;3.13;1.33;;;;;;;-145.18;100.00;47379.28;5015391;28;20117;-60
2023/06/04 01:53:20;;;;;;;3.80;1.77;;;;;;;-145.18;100.00;47344.13;5005042;28;20402;-60
2023/06/04 01:55:45;;;;;;;2.30;1.40;;;;;;;-145.18;100.00;47344.13;5008862;28;20121;-60
2023/06/04 01:58:11;;;;;;;4.40;1.33;;;;;;;-145.18;100.00;47336.31;5002853;28;20057;-59
2023/06/04 02:00:36;;;;;;;3.33;1.47;;;;;;;-145.18;100.00;47367.56;4986532;28;20117;-60
2023/06/04 02:03:02;;;;;;;2.53;1.63;;;;;;;-145.18;100.00;47338.25;5015096;28;20026;-60
2023/06/04 02:05:27;;;;;;;4.60;1.80;;;;;;;-145.18;100.00;47348.03;5015220;28;20026;-60
2023/06/04 02:07:52;;;;;;;4.33;1.63;;;;;;;-145.18;100.00;47308.97;5015314;28;20422;-60
2023/06/04 02:10:20;;;;;;;4.03;1.37;;;;;;;-145.18;100.00;47295.28;4973405;28;20499;-60
2023/06/04 02:12:57;;;;;;;4.87;1.63;;;;;;;-145.18;100.00;47187.84;5014713;28;20040;-60
2023/06/04 02:15:25;;;;;;;4.17;1.27;;;;;;;-145.18;100.00;47017.88;5014403;28;20075;-60
2023/06/04 02:17:55;;;;;;;3.67;1.83;;;;;;;-145.18;100.00;46951.44;4988112;28;20291;-60
2023/06/04 02:20:20;;;;;;;4.80;1.50;;;;;;;-145.18;100.00;46842.06;5015230;28;20263;-60
2023/06/04 02:22:46;;;;;;;1.83;1.27;;;;;;;-145.18;100.00;46783.47;5014841;28;20133;-60
2023/06/04 02:25:11;;;;;;;4.90;1.73;;;;;;;-145.18;100.00;46742.44;5012169;28;20549;-60
2023/06/04 02:27:37;;;;;;;6.67;2.20;;;;;;;-145.18;100.00;46736.56;5020096;28;20036;-60
2023/06/04 02:30:03;;;;;;;2.87;1.73;;;;;;;-145.18;100.00;46732.66;5018553;28;20033;-60
2023/06/04 02:32:29;;;;;;;3.60;1.70;;;;;;;-145.18;100.00;46666.25;5015270;28;20033;-60
2023/06/04 02:34:55;;;;;;;4.23;1.30;;;;;;;-145.18;100.00;46674.06;5008945;28;20263;-60
2023/06/04 02:37:21;;;;;;;2.60;1.63;;;;;;;-145.18;100.00;46683.84;5014449;28;20030;-60
2023/06/04 02:39:46;;;;;;;3.43;1.47;;;;;;;-145.18;100.00;46668.22;4980701;28;20262;-59
2023/06/04 02:42:11;;;;;;;7.83;1.83;;;;;;;-145.18;100.00;46660.41;5014477;28;20057;-60
2023/06/04 02:44:37;;;;;;;3.77;1.73;;;;;;;-145.18;100.00;46670.16;5001459;28;20038;-60
2023/06/04 02:47:03;;;;;;;4.83;1.60;;;;;;;-145.18;100.00;46662.34;5014040;28;20042;-60
2023/06/04 02:49:29;;;;;;;2.57;1.60;;;;;;;-145.18;100.00;46652.59;4996936;28;20109;-60
2023/06/04 02:51:54;;;;;;;4.83;1.73;;;;;;;-145.18;100.00;46654.53;4997081;28;20346;-60
2023/06/04 02:54:20;;;;;;;3.07;1.87;;;;;;;-145.18;100.00;46660.41;5014120;28;20120;-59
2023/06/04 02:56:45;;;;;;;4.87;1.53;;;;;;;-145.18;100.00;46652.59;5014202;28;20034;-60
2023/06/04 02:59:11;;;;;;;3.03;1.50;;;;;;;-145.18;100.00;46629.13;4996565;28;20061;-60
2023/06/04 03:01:36;;;;;;;4.13;1.83;;;;;;;-145.18;100.00;46633.06;5011334;28;20053;-60
2023/06/04 03:04:04;;;;;;;2.37;1.30;;;;;;;-145.18;100.00;46625.22;5014061;28;20037;-59
2023/06/04 03:06:32;;;;;;;2.53;1.83;;;;;;;-145.18;100.00;46609.59;5014205;28;20079;-60
2023/06/04 03:08:57;;;;;;;4.43;1.40;;;;;;;-145.18;100.00;46621.31;5013993;28;20620;-60
2023/06/04 03:11:23;;;;;;;2.90;1.40;;;;;;;-145.18;100.00;46605.69;5013832;28;20256;-60
2023/06/04 03:13:49;;;;;;;4.17;2.27;;;;;;;-145.18;100.00;46609.59;5012959;28;20117;-60
2023/06/04 03:16:15;;;;;;;3.37;1.63;;;;;;;-145.18;100.00;46609.59;5003953;28;20087;-60
2023/06/04 03:18:41;;;;;;;5.03;1.60;;;;;;;-145.18;100.00;46605.69;5012869;28;20760;-60
2023/06/04 03:21:08;;;;;;;8.57;1.73;;;;;;;-145.18;100.00;46586.16;5013259;28;20033;-60
2023/06/04 03:23:34;;;;;;;2.90;1.70;;;;;;;-145.18;100.00;46578.34;5013524;28;20279;-60
2023/06/04 03:26:04;;;;;;;2.67;1.77;;;;;;;-145.18;100.00;46592.03;5013410;28;20262;-60
2023/06/04 03:28:29;;;;;;;3.03;1.87;;;;;;;-145.18;100.00;46590.06;5008215;28;20264;-60
2023/06/04 03:30:55;;;;;;;4.57;2.13;;;;;;;-145.18;100.00;46599.84;5013418;28;20252;-60
2023/06/04 03:33:20;;;;;;;5.90;1.60;;;;;;;-145.18;100.00;46605.69;5014579;28;20037;-60
2023/06/04 03:35:47;;;;;;;3.40;1.70;;;;;;;-145.18;100.00;46595.94;5024020;28;20025;-60
2023/06/04 03:38:13;;;;;;;2.80;1.93;;;;;;;-145.18;100.00;46588.13;5008553;28;20586;-60
2023/06/04 03:40:39;;;;;;;3.53;1.80;;;;;;;-145.18;100.00;46586.16;5012061;28;20350;-60
2023/06/04 03:43:04;;;;;;;2.20;1.43;;;;;;;-145.18;100.00;46580.31;5011468;28;20366;-60
2023/06/04 03:45:30;;;;;;;4.07;1.70;;;;;;;-145.18;100.00;46580.31;5013439;28;20034;-60
2023/06/04 03:47:55;;;;;;;3.27;1.60;;;;;;;-145.18;100.00;46578.34;5013031;28;20123;-60
2023/06/04 03:50:21;;;;;;;3.07;1.70;;;;;;;-145.18;100.00;46580.31;5013447;28;20041;-60
2023/06/04 03:52:48;;;;;;;2.57;1.70;;;;;;;-145.18;100.00;46580.31;5012511;28;20491;-62
2023/06/04 03:55:13;;;;;;;3.77;1.50;;;;;;;-145.18;100.00;46588.13;4995134;28;20437;-60
2023/06/04 03:57:39;;;;;;;4.07;1.67;;;;;;;-145.18;100.00;46588.13;5012826;28;20317;-59
2023/06/04 04:00:11;;;;;;;2.23;1.50;;;;;;;-145.18;100.00;46588.13;4995788;28;20414;-60
2023/06/04 04:02:37;;;;;;;3.40;2.10;;;;;;;-145.18;100.00;46586.16;5012782;28;20032;-59
2023/06/04 04:05:03;;;;;;;4.67;1.30;;;;;;;-145.18;100.00;46580.31;5006580;28;20263;-60
2023/06/04 04:07:28;;;;;;;3.87;1.87;;;;;;;-145.18;100.00;46582.25;5009350;28;20026;-59
2023/06/04 04:09:54;;;;;;;2.47;1.50;;;;;;;-145.18;100.00;46578.34;5012581;28;20034;-60
2023/06/04 04:12:19;;;;;;;7.63;1.53;;;;;;;-145.18;100.00;46582.25;4993074;28;20065;-61
2023/06/04 04:14:46;;;;;;;3.80;1.60;;;;;;;-145.18;100.00;46588.13;4995356;28;20056;-60
2023/06/04 04:17:12;;;;;;;2.47;1.50;;;;;;;-145.18;100.00;46592.03;5011893;28;20535;-60
2023/06/04 04:19:38;;;;;;;2.70;1.50;;;;;;;-145.18;100.00;46584.22;5011409;28;20259;-60
2023/06/04 04:22:03;;;;;;;2.57;1.50;;;;;;;-145.18;100.00;46599.84;4994536;28;20251;-60
2023/06/04 04:24:29;;;;;;;3.37;1.40;;;;;;;-145.18;100.00;46613.50;5009961;28;20129;-60
2023/06/04 04:26:54;;;;;;;2.67;1.23;;;;;;;-145.18;100.00;46605.69;5005401;28;20046;-60
2023/06/04 04:29:24;;;;;;;3.80;1.40;;;;;;;-145.18;100.00;46590.06;5011972;28;20026;-60
2023/06/04 04:31:56;;;;;;;2.53;1.60;;;;;;;-145.18;100.00;46617.41;5012002;28;20030;-60
2023/06/04 04:34:23;;;;;;;5.03;2.03;;;;;;;-145.18;100.00;46631.09;5003075;28;20622;-60
2023/06/04 04:36:52;;;;;;;3.40;1.60;;;;;;;-145.18;100.00;46621.31;5007991;28;20363;-60
2023/06/04 04:39:24;;;;;;;3.20;1.60;;;;;;;-145.18;100.00;46627.19;5008815;28;20367;-60
2023/06/04 04:41:50;;;;;;;3.80;1.87;;;;;;;-145.18;100.00;46613.50;5011835;28;20350;-60
2023/06/04 04:44:16;;;;;;;3.10;1.60;;;;;;;-145.18;100.00;46635.00;5010881;28;20824;-60
2023/06/04 04:46:41;;;;;;;2.70;1.73;;;;;;;-145.18;100.00;46613.50;5007023;28;20018;-60
2023/06/04 04:49:07;;;;;;;4.63;2.00;;;;;;;-145.18;100.00;46627.19;5002399;28;20088;-60
2023/06/04 04:51:32;;;;;;;3.27;1.80;;;;;;;-145.18;100.00;46646.72;5007326;28;20026;-59
2023/06/04 04:54:01;;;;;;;3.33;1.80;;;;;;;-145.18;100.00;46654.53;5010768;28;20475;-60
2023/06/04 04:56:27;;;;;;;3.03;1.80;;;;;;;-145.18;100.00;46642.81;4999153;28;20067;-60
2023/06/04 04:58:54;;;;;;;3.63;1.47;;;;;;;-145.18;100.00;46668.22;5008034;28;20724;-60
2023/06/04 05:01:20;;;;;;;3.17;1.70;;;;;;;-145.18;100.00;46644.78;4998893;28;20428;-60
2023/06/04 05:03:45;;;;;;;1.87;1.27;;;;;;;-145.18;100.00;46642.81;5000917;28;20292;-60
2023/06/04 05:06:11;;;;;;;3.43;1.80;;;;;;;-145.18;100.00;46652.59;5008653;28;20304;-60
2023/06/04 05:08:36;;;;;;;3.83;1.70;;;;;;;-145.18;100.00;46677.97;4993226;28;20058;-60
2023/06/04 05:11:02;;;;;;;4.03;1.50;;;;;;;-145.18;100.00;46644.78;5012179;28;20112;-59
2023/06/04 05:13:27;;;;;;;4.03;1.90;;;;;;;-145.18;100.00;46652.59;5010775;28;20120;-60
2023/06/04 05:15:53;;;;;;;3.43;1.50;;;;;;;-145.18;100.00;46660.41;5010732;28;20371;-60
2023/06/04 05:18:28;;;;;;;2.57;1.40;;;;;;;-145.18;100.00;46676.03;5011414;28;20036;-60
2023/06/04 05:20:59;;;;;;;2.10;1.40;;;;;;;-145.18;100.00;46656.50;5012171;28;20030;-60
2023/06/04 05:23:26;;;;;;;2.43;1.70;;;;;;;-145.18;100.00;46668.22;5011649;28;20049;-60
2023/06/04 05:25:51;;;;;;;2.90;1.40;;;;;;;-145.18;100.00;46670.16;5011847;28;20279;-60
2023/06/04 05:28:17;;;;;;;3.83;1.60;;;;;;;-145.18;100.00;46640.88;5010421;28;20313;-60
2023/06/04 05:30:43;;;;;;;4.00;1.77;;;;;;;-145.18;100.00;46677.97;5005597;28;20026;-60
2023/06/04 05:33:17;;;;;;;2.83;1.50;;;;;;;-145.18;100.00;46668.22;5000719;28;20443;-60
2023/06/04 05:35:48;;;;;;;2.73;1.53;;;;;;;-145.18;100.00;46683.84;5000858;28;20279;-60
2023/06/04 05:38:17;;;;;;;4.73;1.80;;;;;;;-145.18;100.00;46662.34;5006550;28;20370;-60
2023/06/04 05:40:43;;;;;;;3.57;1.80;;;;;;;-145.18;100.00;46695.56;5008212;28;20259;-60
2023/06/04 05:43:08;;;;;;;5.90;1.70;;;;;;;-145.18;100.00;46685.78;5011478;28;20354;-60
2023/06/04 05:45:34;;;;;;;3.70;1.50;;;;;;;-145.18;100.00;46689.69;5009664;28;20335;-60
2023/06/04 05:47:59;;;;;;;2.97;1.27;;;;;;;-145.18;100.00;46715.09;5011856;28;20065;-60
2023/06/04 05:50:24;;;;;;;4.20;1.93;;;;;;;-145.18;100.00;46689.69;5011508;28;20061;-60
2023/06/04 05:52:50;;;;;;;2.40;1.50;;;;;;;-145.18;100.00;46707.28;5011885;28;20033;-60
2023/06/04 05:55:16;;;;;;;5.30;2.00;;;;;;;-145.18;100.00;46679.94;5007735;28;20128;-60
2023/06/04 05:57:42;;;;;;;3.33;1.73;;;;;;;-145.18;100.00;46691.66;4994020;28;20045;-60
2023/06/04 06:00:10;;;;;;;3.70;1.60;;;;;;;-145.18;100.00;46717.03;5003987;28;20379;-60
2023/06/04 06:02:37;;;;;;;5.47;1.97;;;;;;;-145.18;100.00;46738.53;5000488;28;20037;-60
2023/06/04 06:05:03;;;;;;;2.93;1.50;;;;;;;-145.18;100.00;46756.09;4993674;28;20635;-60
2023/06/04 06:07:28;;;;;;;4.30;1.80;;;;;;;-145.18;100.00;46758.06;5005541;28;20279;-60
2023/06/04 06:09:54;;;;;;;3.87;1.70;;;;;;;-145.18;100.00;46801.03;5005625;28;20376;-60
2023/06/04 06:12:19;;;;;;;2.27;1.33;;;;;;;-145.18;100.00;46859.63;5009457;28;20494;-60
2023/06/04 06:14:45;;;;;;;4.63;1.80;;;;;;;-145.18;100.00;47043.28;5007468;28;20026;-60
2023/06/04 06:17:10;;;;;;;2.80;1.90;;;;;;;-145.18;100.00;47000.28;5002466;28;20045;-60
2023/06/04 06:19:37;;;;;;;7.20;1.43;;;;;;;-145.18;100.00;47164.38;4988923;28;20034;-60
2023/06/04 06:22:03;;;;;;;3.23;1.77;;;;;;;-145.18;100.00;47215.19;5001078;28;20030;-60
2023/06/04 06:24:29;;;;;;;3.43;1.80;;;;;;;-145.18;100.00;47267.94;5002718;28;20046;-60
2023/06/04 06:26:54;;;;;;;4.70;1.70;;;;;;;-145.18;100.00;47113.59;4996683;28;20100;-60
2023/06/04 06:29:20;;;;;;;2.97;1.63;;;;;;;-145.18;100.00;47150.72;5006936;28;20041;-60
2023/06/04 06:31:46;;;;;;;3.83;1.67;;;;;;;-145.18;100.00;47209.31;5007731;28;20062;-60
2023/06/04 06:34:11;;;;;;;3.37;1.50;;;;;;;-145.18;100.00;47260.13;5001172;28;20061;-60
2023/06/04 06:36:37;;;;;;;4.30;1.53;;;;;;;-145.18;100.00;47320.69;4984324;28;20036;-60
2023/06/04 06:39:03;;;;;;;4.93;1.30;;;;;;;-145.18;100.00;47316.78;5006731;28;20033;-61
2023/06/04 06:41:30;;;;;;;5.83;3.17;;;;;;;-145.18;100.00;47301.16;5014267;28;20475;-60
2023/06/04 06:43:56;;;;;;;4.40;1.70;;;;;;;-145.18;100.00;47289.41;5014546;28;20053;-60
2023/06/04 06:46:22;;;;;;;3.83;1.73;;;;;;;-145.18;100.00;47287.47;5010017;28;20029;-60
2023/06/04 06:48:48;;;;;;;3.43;1.60;;;;;;;-145.18;100.00;47307.00;5011756;28;20126;-60
2023/06/04 06:51:13;;;;;;;4.43;1.90;;;;;;;-145.18;100.00;47297.22;5013467;28;20026;-60
2023/06/04 06:53:39;;;;;;;5.33;2.30;;;;;;;-145.18;100.00;47295.28;5013884;28;20044;-60
2023/06/04 06:56:05;;;;;;;4.03;1.93;;;;;;;-145.18;100.00;47301.16;5013812;28;20080;-60
2023/06/04 06:58:30;;;;;;;5.53;2.03;;;;;;;-145.18;100.00;47285.50;5014009;28;20044;-60
2023/06/04 07:00:56;;;;;;;4.23;1.90;;;;;;;-145.18;100.00;47246.44;5014004;28;20054;-60
2023/06/04 07:03:22;;;;;;;3.40;1.57;;;;;;;-145.18;100.00;47254.25;5013896;28;20447;-60
2023/06/04 07:05:47;;;;;;;3.27;1.60;;;;;;;-145.18;100.00;47240.56;5010535;28;20135;-60
2023/06/04 07:08:13;;;;;;;3.87;1.50;;;;;;;-145.18;100.00;47250.34;5014065;28;20488;-60
2023/06/04 07:10:38;;;;;;;3.70;1.47;;;;;;;-145.18;100.00;47238.63;5007886;28;20041;-60
2023/06/04 07:13:03;;;;;;;4.17;1.50;;;;;;;-145.18;100.00;47217.13;5005912;28;20083;-60
2023/06/04 07:15:29;;;;;;;2.97;1.57;;;;;;;-145.18;100.00;47219.09;4989391;28;20479;-60
2023/06/04 07:17:54;;;;;;;2.73;1.70;;;;;;;-145.18;100.00;47205.41;5013271;28;20030;-60
2023/06/04 07:20:20;;;;;;;2.97;1.40;;;;;;;-145.18;100.00;47211.28;5013072;28;20045;-60
2023/06/04 07:22:45;;;;;;;4.27;1.50;;;;;;;-145.18;100.00;47197.59;4995467;28;20088;-60
2023/06/04 07:25:11;;;;;;;3.13;1.20;;;;;;;-145.18;100.00;47199.56;5009874;28;20053;-60
2023/06/04 07:27:36;;;;;;;3.17;1.60;;;;;;;-145.18;100.00;47195.66;4996014;28;20036;-60
2023/06/04 07:30:02;;;;;;;2.00;1.20;;;;;;;-145.18;100.00;47187.84;5013029;28;20026;-60
2023/06/04 07:32:27;;;;;;;2.83;1.40;;;;;;;-145.18;100.00;47193.69;5013324;28;20479;-61
2023/06/04 07:34:53;;;;;;;4.70;1.30;;;;;;;-145.18;100.00;47176.09;5012884;28;20491;-60
2023/06/04 07:37:18;;;;;;;5.93;1.80;;;;;;;-145.18;100.00;47170.25;5011807;28;20057;-61
2023/06/04 07:39:44;;;;;;;2.83;1.30;;;;;;;-145.18;100.00;47193.69;5012404;28;20492;-61
2023/06/04 07:42:09;;;;;;;5.33;1.70;;;;;;;-145.18;100.00;47174.16;4980730;28;20048;-60
2023/06/04 07:44:38;;;;;;;2.67;1.57;;;;;;;-145.18;100.00;47168.28;5012319;28;20057;-60
2023/06/04 07:47:04;;;;;;;2.43;1.50;;;;;;;-145.18;100.00;47174.16;5012630;28;20134;-60
2023/06/04 07:49:29;;;;;;;8.10;1.40;;;;;;;-145.18;100.00;47164.38;4973453;28;20025;-60
2023/06/04 07:51:54;;;;;;;2.13;1.40;;;;;;;-145.18;100.00;47144.84;5008067;28;20057;-60
2023/06/04 07:54:20;;;;;;;6.27;1.57;;;;;;;-145.18;100.00;47164.38;5012076;28;20451;-60
2023/06/04 07:56:45;;;;;;;6.53;1.57;;;;;;;-145.18;100.00;47170.25;5012796;28;20038;-60
2023/06/04 07:59:11;;;;;;;2.13;1.20;;;;;;;-145.18;100.00;47152.66;5011840;28;20036;-61
2023/06/04 08:01:36;;;;;;;3.10;1.37;;;;;;;-145.18;100.00;47152.66;5013042;28;20105;-60
2023/06/04 08:04:02;;;;;;;5.70;1.57;;;;;;;-145.18;100.00;47168.28;4994909;28;20100;-60
2023/06/04 08:06:27;;;;;;;3.73;1.73;;;;;;;-145.18;100.00;47164.38;5003787;28;20109;-60
2023/06/04 08:08:53;;;;;;;6.67;1.37;;;;;;;-145.18;100.00;47144.84;5012782;28;20026;-61
2023/06/04 08:11:18;;;;;;;4.67;1.30;;;;;;;-145.18;100.00;47135.09;4995119;28;20022;-61
2023/06/04 08:13:44;;;;;;;3.67;1.30;;;;;;;-145.18;100.00;47146.81;5012871;28;20025;-61
2023/06/04 08:16:10;;;;;;;3.37;1.23;;;;;;;-145.18;100.00;47140.94;5012816;28;20034;-61
2023/06/04 08:18:39;;;;;;;3.13;1.27;;;;;;;-145.18;100.00;47142.91;4991458;28;20763;-61
2023/06/04 08:21:05;;;;;;;6.27;1.40;;;;;;;-145.18;100.00;47137.03;4995298;28;20037;-60
2023/06/04 08:23:31;;;;;;;2.87;1.40;;;;;;;-145.18;100.00;47146.81;4995001;28;20518;-61
2023/06/04 08:25:57;;;;;;;3.00;1.80;;;;;;;-145.18;100.00;47139.00;4994350;28;20034;-61
2023/06/04 08:28:22;;;;;;;3.67;1.10;;;;;;;-145.18;100.00;47129.22;5012417;28;20080;-61
2023/06/04 08:30:47;;;;;;;1.77;1.10;;;;;;;-145.18;100.00;47131.19;4994701;28;20029;-61
2023/06/04 08:33:13;;;;;;;2.40;1.40;;;;;;;-145.18;100.00;47109.69;5012395;28;20033;-61
2023/06/04 08:35:38;;;;;;;3.00;1.30;;;;;;;-145.18;100.00;47115.56;5003778;28;20053;-61
2023/06/04 08:38:03;;;;;;;2.57;1.23;;;;;;;-145.18;100.00;47101.88;5012470;28;20026;-61
2023/06/04 08:40:29;;;;;;;3.27;1.30;;;;;;;-145.18;100.00;47109.69;4994484;28;20037;-61
2023/06/04 08:42:59;;;;;;;3.10;1.60;;;;;;;-145.18;100.00;47103.81;5012322;28;20032;-61
2023/06/04 08:45:25;;;;;;;4.37;1.40;;;;;;;-145.18;100.00;47090.16;5012677;28;20080;-61
2023/06/04 08:47:51;;;;;;;3.00;1.20;;;;;;;-145.18;100.00;47099.91;5011959;28;20022;-61
2023/06/04 08:50:19;;;;;;;1.33;0.90;;;;;;;-145.18;100.00;47078.44;5010570;28;20022;-61
2023/06/04 08:52:45;;;;;;;3.37;1.30;;;;;;;-145.18;100.00;47094.06;5012122;28;20033;-61
2023/06/04 08:55:13;;;;;;;1.80;1.07;;;;;;;-145.18;100.00;47092.09;5011946;28;20525;-61
2023/06/04 08:57:40;;;;;;;2.37;1.10;;;;;;;-145.18;100.00;47078.44;5011949;28;20026;-61
2023/06/04 09:00:07;;;;;;;1.97;1.37;;;;;;;-145.18;100.00;47090.16;5005939;28;20037;-60
2023/06/04 09:02:37;;;;;;;3.17;1.27;;;;;;;-145.18;100.00;47070.63;5008183;28;20502;-61
2023/06/04 09:05:04;;;;;;;1.83;1.00;;;;;;;-145.18;100.00;47076.47;5011986;28;20030;-61
2023/06/04 09:07:30;;;;;;;2.50;1.10;;;;;;;-145.18;100.00;47078.44;5011578;28;20032;-61
2023/06/04 09:09:56;;;;;;;4.33;1.33;;;;;;;-145.18;100.00;47088.19;5012445;28;20080;-61
2023/06/04 09:12:25;;;;;;;1.30;0.97;;;;;;;-145.18;100.00;47072.56;5011550;28;20014;-60
2023/06/04 09:14:50;;;;;;;5.47;1.10;;;;;;;-145.18;100.00;47070.63;5011942;28;20033;-61
2023/06/04 09:17:24;;;;;;;2.23;0.87;;;;;;;-145.18;100.00;47056.94;5011705;28;20026;-61
2023/06/04 09:19:51;;;;;;;2.83;1.00;;;;;;;-145.18;100.00;47092.09;5011764;28;20038;-61
2023/06/04 09:22:17;;;;;;;2.60;1.10;;;;;;;-145.18;100.00;47060.84;5012029;28;20084;-61
2023/06/04 09:24:49;;;;;;;1.87;1.10;;;;;;;-145.18;100.00;47064.75;5011723;28;20473;-61
2023/06/04 09:27:19;;;;;;;2.87;1.20;;;;;;;-145.18;100.00;47056.94;5011829;28;20034;-61
2023/06/04 09:29:56;;;;;;;2.13;0.90;;;;;;;-145.18;100.00;47041.31;5010185;28;20096;-61
2023/06/04 09:32:28;;;;;;;2.87;1.40;;;;;;;-145.18;100.00;47043.28;5005119;28;20037;-61
2023/06/04 09:34:57;;;;;;;2.03;1.10;;;;;;;-145.18;100.00;47045.22;5023745;28;20030;-61
2023/06/04 09:37:22;;;;;;;1.47;1.00;;;;;;;-145.18;100.00;47047.19;5011754;28;20033;-61
2023/06/04 09:39:55;;;;;;;3.57;1.30;;;;;;;-145.18;100.00;47037.41;5017851;28;20033;-61
2023/06/04 09:42:22;;;;;;;3.40;1.20;;;;;;;-145.18;100.00;47023.72;5024754;28;20037;-62
2023/06/04 09:44:48;;;;;;;3.53;1.10;;;;;;;-145.18;100.00;47033.50;5015149;28;20505;-61
2023/06/04 09:47:13;;;;;;;3.00;1.10;;;;;;;-145.18;100.00;47045.22;5014945;28;20117;-61
2023/06/04 09:49:42;;;;;;;2.23;1.10;;;;;;;-145.18;100.00;47027.63;5015319;28;20386;-61
2023/06/04 09:52:08;;;;;;;1.20;1.00;;;;;;;-145.18;100.00;47029.59;5015535;28;20033;-61
2023/06/04 09:54:37;;;;;;;1.00;0.90;;;;;;;-145.18;100.00;47039.34;5000301;28;20030;-61
2023/06/04 09:57:15;;;;;;;2.90;1.20;;;;;;;-145.18;100.00;47021.78;5023807;28;20040;-62
2023/06/04 09:59:43;;;;;;;2.27;1.53;;;;;;;-145.18;100.00;47017.88;5011965;28;20268;-61
2023/06/04 10:02:11;;;;;;;3.57;1.20;;;;;;;-145.18;100.00;47027.63;5014454;28;20030;-61
2023/06/04 10:04:39;;;;;;;3.33;1.10;;;;;;;-145.18;100.00;47027.63;5015456;28;20025;-61
2023/06/04 10:07:07;;;;;;;2.10;1.37;;;;;;;-145.18;100.00;47012.00;5014720;28;20399;-61
2023/06/04 10:09:35;;;;;;;2.07;0.97;;;;;;;-145.18;99.84;47023.72;5009412;28;20014;-61
2023/06/04 10:12:02;;;;;;;1.43;1.10;;;;;;;-145.18;100.00;47019.81;5020793;28;20032;-62
2023/06/04 10:14:47;;;;;;;1.50;1.10;;;;;;;-145.18;100.00;47021.78;5015367;28;20383;-61
2023/06/04 10:17:15;;;;;;;2.17;1.20;;;;;;;-145.18;90.46;47017.88;5013222;28;20422;-61
2023/06/04 10:19:43;;;;;;;2.93;1.00;;;;;;;-145.18;90.59;47008.09;5014935;28;20483;-61
2023/06/04 10:22:11;;;;;;;2.23;1.07;;;;;;;-145.18;90.73;47019.81;5014990;28;20052;-61
2023/06/04 10:24:37;;;;;;;1.20;0.90;;;;;;;-145.18;89.93;47002.25;5013389;28;20082;-62
2023/06/04 10:27:10;;;;;;;1.30;0.90;;;;;;;-145.18;93.85;46998.34;5012815;28;20049;-61
2023/06/04 10:29:35;;;;;;;4.03;1.10;;;;;;;-145.18;86.69;47000.28;4998209;28;20033;-61
2023/06/04 10:32:01;;;;;;;3.00;1.20;;;;;;;-145.18;70.15;47012.00;4994515;28;20026;-62
2023/06/04 10:34:27;;;;;;;1.47;0.90;;;;;;;-145.18;81.51;46992.47;5020926;28;20061;-61
2023/06/04 10:36:52;;;;;;;3.60;1.27;;;;;;;-145.18;73.80;46986.63;5013640;28;20034;-62
2023/06/04 10:39:28;;;;;;;1.10;0.90;;;;;;;-145.18;76.69;47000.28;5011812;28;20038;-61
2023/06/04 10:42:12;;;;;;;1.67;1.13;;;;;;;-145.18;77.23;46992.47;5023587;28;20030;-62
2023/06/04 10:44:46;;;;;;;1.83;1.10;;;;;;;-145.18;92.29;46990.53;5006116;28;20495;-61
2023/06/04 10:47:40;;;;;;;1.67;1.10;;;;;;;-145.18;88.93;46990.53;5004461;28;20487;-62
2023/06/04 10:50:11;;;;;;;1.87;1.20;;;;;;;-145.18;74.39;46986.63;5002744;28;20049;-61
2023/06/04 10:52:38;;;;;;;4.03;1.33;;;;;;;-145.18;66.52;46982.72;5014703;28;20386;-61
2023/06/04 10:55:04;;;;;;;5.03;1.10;;;;;;;-145.18;61.90;46980.75;5007409;28;20081;-62
2023/06/04 10:57:31;;;;;;;3.60;1.30;;;;;;;-145.18;70.67;46980.75;4993831;28;20037;-61
2023/06/04 10:59:58;;;;;;;2.10;0.97;;;;;;;-145.18;77.51;46976.84;5013953;28;20044;-62
2023/06/04 11:02:24;;;;;;;2.30;1.10;;;;;;;-145.18;73.49;46978.81;5012353;28;20076;-61
2023/06/04 11:05:06;;;;;;;0.97;0.83;;;;;;;-145.18;67.19;46982.72;5005203;28;20038;-62
2023/06/04 11:07:45;;;;;;;1.63;1.20;;;;;;;-145.18;68.57;46967.09;5012113;28;20399;-62